createdAt,value
2022-11-09T00:00:00.000Z,96284
2022-11-09T00:05:00.000Z,96282
2022-11-09T00:10:00.000Z,96286
2022-11-09T00:15:00.000Z,96270
2022-11-09T00:20:00.000Z,96278
2022-11-09T00:25:00.000Z,96293
2022-11-09T00:30:00.000Z,96296
2022-11-09T00:35:00.000Z,96286
2022-11-09T00:40:00.000Z,96289
2022-11-09T00:45:00.000Z,96291
2022-11-09T00:50:00.000Z,96279
2022-11-09T00:55:00.000Z,96283
2022-11-09T01:00:00.000Z,96287
2022-11-09T01:05:00.000Z,96284
2022-11-09T01:10:00.000Z,96286
2022-11-09T01:15:00.000Z,96277
2022-11-09T01:20:00.000Z,96282
2022-11-09T01:25:00.000Z,96275
2022-11-09T01:30:00.000Z,96267
2022-11-09T01:35:00.000Z,96280
2022-11-09T01:40:00.000Z,96280
2022-11-09T01:45:00.000Z,96281
2022-11-09T01:50:00.000Z,96276
2022-11-09T01:55:00.000Z,96272
2022-11-09T02:00:00.000Z,96272
2022-11-09T02:05:00.000Z,96270
2022-11-09T02:10:00.000Z,96268
2022-11-09T02:15:00.000Z,96266
2022-11-09T02:20:00.000Z,96267
2022-11-09T02:25:00.000Z,96263
2022-11-09T02:30:00.000Z,96260
2022-11-09T02:35:00.000Z,96264
2022-11-09T02:40:00.000Z,96256
2022-11-09T02:45:00.000Z,96253
2022-11-09T02:50:00.000Z,96262
2022-11-09T02:55:00.000Z,96261
2022-11-09T03:00:00.000Z,96262
2022-11-09T03:05:00.000Z,96290
2022-11-09T03:10:00.000Z,96290
2022-11-09T03:15:00.000Z,96289
2022-11-09T03:20:00.000Z,96306
2022-11-09T03:25:00.000Z,96315
2022-11-09T03:30:00.000Z,96320
2022-11-09T03:35:00.000Z,96304
2022-11-09T03:40:00.000Z,96315
2022-11-09T03:45:00.000Z,96326
2022-11-09T03:50:00.000Z,96325
2022-11-09T03:55:00.000Z,96326
2022-11-09T04:00:00.000Z,96330
2022-11-09T04:05:00.000Z,96338
2022-11-09T04:10:00.000Z,96345
2022-11-09T04:15:00.000Z,96354
2022-11-09T04:20:00.000Z,96367
2022-11-09T04:25:00.000Z,96359
2022-11-09T04:30:00.000Z,96370
2022-11-09T04:35:00.000Z,96373
2022-11-09T04:40:00.000Z,96372
2022-11-09T04:45:00.000Z,96380
2022-11-09T04:50:00.000Z,96362
2022-11-09T04:55:00.000Z,96368
2022-11-09T05:00:00.000Z,96388
2022-11-09T05:05:00.000Z,96395
2022-11-09T05:10:00.000Z,96398
2022-11-09T05:15:00.000Z,96397
2022-11-09T05:20:00.000Z,96389
2022-11-09T05:25:00.000Z,96383
2022-11-09T05:30:00.000Z,96384
2022-11-09T05:35:00.000Z,96408
2022-11-09T05:40:00.000Z,96406
2022-11-09T05:45:00.000Z,96417
2022-11-09T05:50:00.000Z,96411
2022-11-09T05:55:00.000Z,96414
2022-11-09T06:00:00.000Z,96423
2022-11-09T06:05:00.000Z,96418
2022-11-09T06:10:00.000Z,96423
2022-11-09T06:15:00.000Z,96425
2022-11-09T06:20:00.000Z,96435
2022-11-09T06:25:00.000Z,96433
2022-11-09T06:30:00.000Z,96445
2022-11-09T06:35:00.000Z,96452
2022-11-09T06:40:00.000Z,96449
2022-11-09T06:45:00.000Z,96439
2022-11-09T06:50:00.000Z,96451
2022-11-09T06:55:00.000Z,96475
2022-11-09T07:00:00.000Z,96474
2022-11-09T07:05:00.000Z,96483
2022-11-09T07:10:00.000Z,96478
2022-11-09T07:15:00.000Z,96475
2022-11-09T07:20:00.000Z,96478
2022-11-09T07:25:00.000Z,96490
2022-11-09T07:30:00.000Z,96486
2022-11-09T07:35:00.000Z,96499
2022-11-09T07:40:00.000Z,96491
2022-11-09T07:45:00.000Z,96492
2022-11-09T07:50:00.000Z,96488
2022-11-09T07:55:00.000Z,96498
2022-11-09T08:00:00.000Z,96484
2022-11-09T08:05:00.000Z,96494
2022-11-09T08:10:00.000Z,96490
2022-11-09T08:15:00.000Z,96492
2022-11-09T08:20:00.000Z,96485
2022-11-09T08:25:00.000Z,96468
2022-11-09T08:30:00.000Z,96465
2022-11-09T08:35:00.000Z,96465
2022-11-09T08:40:00.000Z,96473
2022-11-09T08:45:00.000Z,96468
2022-11-09T08:50:00.000Z,96453
2022-11-09T08:55:00.000Z,96461
2022-11-09T09:00:00.000Z,96461
2022-11-09T09:05:00.000Z,96460
2022-11-09T09:10:00.000Z,96458
2022-11-09T09:15:00.000Z,96459
2022-11-09T09:20:00.000Z,96467
2022-11-09T09:25:00.000Z,96465
2022-11-09T09:30:00.000Z,96466
2022-11-09T09:35:00.000Z,96466
2022-11-09T09:40:00.000Z,96463
2022-11-09T09:45:00.000Z,96457
2022-11-09T09:50:00.000Z,96473
2022-11-09T09:55:00.000Z,96475
2022-11-09T10:00:00.000Z,96478
2022-11-09T10:05:00.000Z,96461
2022-11-09T10:10:00.000Z,96454
2022-11-09T10:15:00.000Z,96462
2022-11-09T10:20:00.000Z,96456
2022-11-09T10:25:00.000Z,96463
2022-11-09T10:30:00.000Z,96457
2022-11-09T10:35:00.000Z,96450
2022-11-09T10:40:00.000Z,96443
2022-11-09T10:45:00.000Z,96434
2022-11-09T10:50:00.000Z,96422
2022-11-09T10:55:00.000Z,96426
2022-11-09T11:00:00.000Z,96410
2022-11-09T11:05:00.000Z,96416
2022-11-09T11:10:00.000Z,96406
2022-11-09T11:15:00.000Z,96413
2022-11-09T11:20:00.000Z,96399
2022-11-09T11:25:00.000Z,96396
2022-11-09T11:30:00.000Z,96384
2022-11-09T11:35:00.000Z,96394
2022-11-09T11:40:00.000Z,96387
2022-11-09T11:45:00.000Z,96384
2022-11-09T11:50:00.000Z,96379
2022-11-09T11:55:00.000Z,96383
2022-11-09T12:00:00.000Z,96387
2022-11-09T12:05:00.000Z,96386
2022-11-09T12:10:00.000Z,96388
2022-11-09T12:15:00.000Z,96380
2022-11-09T12:20:00.000Z,96373
2022-11-09T12:25:00.000Z,96379
2022-11-09T12:30:00.000Z,96382
2022-11-09T12:35:00.000Z,96376
2022-11-09T12:40:00.000Z,96361
2022-11-09T12:45:00.000Z,96365
2022-11-09T12:50:00.000Z,96354
2022-11-09T12:55:00.000Z,96360
2022-11-09T13:00:00.000Z,96372
2022-11-09T13:05:00.000Z,96362
2022-11-09T13:10:00.000Z,96363
2022-11-09T13:15:00.000Z,96365
2022-11-09T13:20:00.000Z,96370
2022-11-09T13:25:00.000Z,96368
2022-11-09T13:30:00.000Z,96376
2022-11-09T13:35:00.000Z,96383
2022-11-09T13:40:00.000Z,96379
2022-11-09T13:45:00.000Z,96379
2022-11-09T13:50:00.000Z,96392
2022-11-09T13:55:00.000Z,96396
2022-11-09T14:00:00.000Z,96387
2022-11-09T14:05:00.000Z,96391
2022-11-09T14:10:00.000Z,96393
2022-11-09T14:15:00.000Z,96400
2022-11-09T14:20:00.000Z,96408
2022-11-09T14:25:00.000Z,96422
2022-11-09T14:30:00.000Z,96424
2022-11-09T14:35:00.000Z,96423
2022-11-09T14:40:00.000Z,96423
2022-11-09T14:45:00.000Z,96432
2022-11-09T14:50:00.000Z,96443
2022-11-09T14:55:00.000Z,96444
2022-11-09T15:00:00.000Z,96451
2022-11-09T15:05:00.000Z,96464
2022-11-09T15:10:00.000Z,96473
2022-11-09T15:15:00.000Z,96470
2022-11-09T15:20:00.000Z,96487
2022-11-09T15:25:00.000Z,96499
2022-11-09T15:30:00.000Z,96510
2022-11-09T15:35:00.000Z,96524
2022-11-09T15:40:00.000Z,96514
2022-11-09T15:45:00.000Z,96508
2022-11-09T15:50:00.000Z,96525
2022-11-09T15:55:00.000Z,96531
2022-11-09T16:00:00.000Z,96538
2022-11-09T16:05:00.000Z,96539
2022-11-09T16:10:00.000Z,96544
2022-11-09T16:15:00.000Z,96554
2022-11-09T16:20:00.000Z,96566
2022-11-09T16:25:00.000Z,96561
2022-11-09T16:30:00.000Z,96567
2022-11-09T16:35:00.000Z,96574
2022-11-09T16:40:00.000Z,96576
2022-11-09T16:45:00.000Z,96583
2022-11-09T16:50:00.000Z,96595
2022-11-09T16:55:00.000Z,96597
2022-11-09T17:00:00.000Z,96606
2022-11-09T17:05:00.000Z,96613
2022-11-09T17:10:00.000Z,96626
2022-11-09T17:15:00.000Z,96631
2022-11-09T17:20:00.000Z,96631
2022-11-09T17:25:00.000Z,96653
2022-11-09T17:30:00.000Z,96657
2022-11-09T17:35:00.000Z,96669
2022-11-09T17:40:00.000Z,96685
2022-11-09T17:45:00.000Z,96697
2022-11-09T17:50:00.000Z,96698
2022-11-09T17:55:00.000Z,96700
2022-11-09T18:00:00.000Z,96701
2022-11-09T18:05:00.000Z,96700
2022-11-09T18:10:00.000Z,96704
2022-11-09T18:15:00.000Z,96704
2022-11-09T18:20:00.000Z,96702
2022-11-09T18:25:00.000Z,96700
2022-11-09T18:30:00.000Z,96710
2022-11-09T18:35:00.000Z,96712
2022-11-09T18:40:00.000Z,96727
2022-11-09T18:45:00.000Z,96721
2022-11-09T18:50:00.000Z,96716
2022-11-09T18:55:00.000Z,96711
2022-11-09T19:00:00.000Z,96718
2022-11-09T19:05:00.000Z,96733
2022-11-09T19:10:00.000Z,96735
2022-11-09T19:15:00.000Z,96737
2022-11-09T19:20:00.000Z,96743
2022-11-09T19:25:00.000Z,96748
2022-11-09T19:30:00.000Z,96752
2022-11-09T19:35:00.000Z,96742
2022-11-09T19:40:00.000Z,96748
2022-11-09T19:45:00.000Z,96753
2022-11-09T19:50:00.000Z,96769
2022-11-09T19:55:00.000Z,96766
2022-11-09T20:00:00.000Z,96764
2022-11-09T20:05:00.000Z,96774
2022-11-09T20:10:00.000Z,96776
2022-11-09T20:15:00.000Z,96773
2022-11-09T20:20:00.000Z,96775
2022-11-09T20:25:00.000Z,96787
2022-11-09T20:30:00.000Z,96791
2022-11-09T20:35:00.000Z,96800
2022-11-09T20:40:00.000Z,96794
2022-11-09T20:45:00.000Z,96805
2022-11-09T20:50:00.000Z,96805
2022-11-09T20:55:00.000Z,96803
2022-11-09T21:00:00.000Z,96821
2022-11-09T21:05:00.000Z,96820
2022-11-09T21:10:00.000Z,96819
2022-11-09T21:15:00.000Z,96825
2022-11-09T21:20:00.000Z,96831
2022-11-09T21:25:00.000Z,96833
2022-11-09T21:30:00.000Z,96833
2022-11-09T21:35:00.000Z,96832
2022-11-09T21:40:00.000Z,96846
2022-11-09T21:45:00.000Z,96858
2022-11-09T21:50:00.000Z,96845
2022-11-09T21:55:00.000Z,96850
2022-11-09T22:00:00.000Z,96859
2022-11-09T22:05:00.000Z,96860
2022-11-09T22:10:00.000Z,96854
2022-11-09T22:15:00.000Z,96866
2022-11-09T22:20:00.000Z,96877
2022-11-09T22:25:00.000Z,96879
2022-11-09T22:30:00.000Z,96880
2022-11-09T22:35:00.000Z,96883
2022-11-09T22:40:00.000Z,96890
2022-11-09T22:45:00.000Z,96901
2022-11-09T22:50:00.000Z,96900
2022-11-09T22:55:00.000Z,96912
2022-11-09T23:00:00.000Z,96916
2022-11-09T23:05:00.000Z,96919
2022-11-09T23:10:00.000Z,96910
2022-11-09T23:15:00.000Z,96917
2022-11-09T23:20:00.000Z,96915
2022-11-09T23:25:00.000Z,96923
2022-11-09T23:30:00.000Z,96928
2022-11-09T23:35:00.000Z,96928
2022-11-09T23:40:00.000Z,96928
2022-11-09T23:45:00.000Z,96941
2022-11-09T23:50:00.000Z,96953
2022-11-09T23:55:00.000Z,96958
